sensor_id;sensor_type;location;lat;lon;timestamp;P1;durP1;ratioP1;P2;durP2;ratioP2
18072;SDS011;9161;47.348;9.648;2023-02-13T00:00:23;37.17;;;15.43;;
18072;SDS011;9161;47.348;9.648;2023-02-13T00:05:26;34.93;;;17.37;;
18072;SDS011;9161;47.348;9.648;2023-02-13T00:10:30;36.03;;;15.77;;
18072;SDS011;9161;47.348;9.648;2023-02-13T00:15:32;32.80;;;14.53;;
18072;SDS011;9161;47.348;9.648;2023-02-13T00:20:34;28.90;;;13.97;;
18072;SDS011;9161;47.348;9.648;2023-02-13T00:25:38;27.07;;;12.20;;
18072;SDS011;9161;47.348;9.648;2023-02-13T00:30:40;30.67;;;14.13;;
18072;SDS011;9161;47.348;9.648;2023-02-13T00:35:43;29.93;;;12.80;;
18072;SDS011;9161;47.348;9.648;2023-02-13T00:40:47;31.93;;;13.77;;
18072;SDS011;9161;47.348;9.648;2023-02-13T00:45:49;23.50;;;11.73;;
18072;SDS011;9161;47.348;9.648;2023-02-13T00:50:51;27.50;;;12.77;;
18072;SDS011;9161;47.348;9.648;2023-02-13T00:55:55;24.73;;;12.37;;
18072;SDS011;9161;47.348;9.648;2023-02-13T01:00:58;32.07;;;13.90;;
18072;SDS011;9161;47.348;9.648;2023-02-13T01:06:00;28.13;;;13.43;;
18072;SDS011;9161;47.348;9.648;2023-02-13T01:11:04;28.37;;;13.13;;
18072;SDS011;9161;47.348;9.648;2023-02-13T01:16:07;32.33;;;13.47;;
18072;SDS011;9161;47.348;9.648;2023-02-13T01:21:13;27.43;;;13.07;;
18072;SDS011;9161;47.348;9.648;2023-02-13T01:26:19;28.53;;;12.20;;
18072;SDS011;9161;47.348;9.648;2023-02-13T01:31:23;26.73;;;12.93;;
18072;SDS011;9161;47.348;9.648;2023-02-13T01:36:26;26.67;;;12.73;;
18072;SDS011;9161;47.348;9.648;2023-02-13T01:41:29;28.40;;;13.33;;
18072;SDS011;9161;47.348;9.648;2023-02-13T01:46:33;24.93;;;12.13;;
18072;SDS011;9161;47.348;9.648;2023-02-13T01:51:37;32.63;;;13.63;;
18072;SDS011;9161;47.348;9.648;2023-02-13T01:56:43;29.40;;;13.93;;
18072;SDS011;9161;47.348;9.648;2023-02-13T02:01:47;25.73;;;12.80;;
18072;SDS011;9161;47.348;9.648;2023-02-13T02:06:51;29.30;;;13.47;;
18072;SDS011;9161;47.348;9.648;2023-02-13T02:11:58;24.33;;;12.20;;
18072;SDS011;9161;47.348;9.648;2023-02-13T02:17:05;23.57;;;12.30;;
18072;SDS011;9161;47.348;9.648;2023-02-13T02:22:18;27.37;;;13.10;;
18072;SDS011;9161;47.348;9.648;2023-02-13T02:27:42;25.90;;;12.33;;
18072;SDS011;9161;47.348;9.648;2023-02-13T02:33:07;29.43;;;14.40;;
18072;SDS011;9161;47.348;9.648;2023-02-13T02:38:25;27.80;;;14.00;;
18072;SDS011;9161;47.348;9.648;2023-02-13T02:43:44;30.47;;;14.13;;
18072;SDS011;9161;47.348;9.648;2023-02-13T02:49:00;30.17;;;13.80;;
18072;SDS011;9161;47.348;9.648;2023-02-13T02:54:24;29.93;;;14.50;;
18072;SDS011;9161;47.348;9.648;2023-02-13T02:59:49;29.87;;;13.90;;
18072;SDS011;9161;47.348;9.648;2023-02-13T03:05:16;31.97;;;14.63;;
18072;SDS011;9161;47.348;9.648;2023-02-13T03:10:48;29.37;;;13.70;;
18072;SDS011;9161;47.348;9.648;2023-02-13T03:16:09;27.23;;;13.93;;
18072;SDS011;9161;47.348;9.648;2023-02-13T03:21:34;30.33;;;13.97;;
18072;SDS011;9161;47.348;9.648;2023-02-13T03:27:05;30.47;;;14.57;;
18072;SDS011;9161;47.348;9.648;2023-02-13T03:32:16;34.20;;;16.10;;
18072;SDS011;9161;47.348;9.648;2023-02-13T03:37:26;38.40;;;16.70;;
18072;SDS011;9161;47.348;9.648;2023-02-13T03:42:46;36.40;;;16.87;;
18072;SDS011;9161;47.348;9.648;2023-02-13T03:47:55;33.63;;;16.23;;
18072;SDS011;9161;47.348;9.648;2023-02-13T03:53:00;31.90;;;14.83;;
18072;SDS011;9161;47.348;9.648;2023-02-13T03:58:07;34.33;;;15.30;;
18072;SDS011;9161;47.348;9.648;2023-02-13T04:03:32;31.67;;;15.43;;
18072;SDS011;9161;47.348;9.648;2023-02-13T04:08:43;36.13;;;16.63;;
18072;SDS011;9161;47.348;9.648;2023-02-13T04:13:45;34.40;;;15.73;;
18072;SDS011;9161;47.348;9.648;2023-02-13T04:18:52;40.33;;;18.37;;
18072;SDS011;9161;47.348;9.648;2023-02-13T04:23:58;40.50;;;18.60;;
18072;SDS011;9161;47.348;9.648;2023-02-13T04:29:00;43.80;;;18.47;;
18072;SDS011;9161;47.348;9.648;2023-02-13T04:34:03;39.47;;;18.00;;
18072;SDS011;9161;47.348;9.648;2023-02-13T04:39:06;40.10;;;17.97;;
18072;SDS011;9161;47.348;9.648;2023-02-13T04:44:09;37.23;;;17.33;;
18072;SDS011;9161;47.348;9.648;2023-02-13T04:49:11;35.17;;;16.10;;
18072;SDS011;9161;47.348;9.648;2023-02-13T04:54:14;30.63;;;15.43;;
18072;SDS011;9161;47.348;9.648;2023-02-13T04:59:17;38.30;;;16.50;;
18072;SDS011;9161;47.348;9.648;2023-02-13T05:04:19;36.60;;;16.13;;
18072;SDS011;9161;47.348;9.648;2023-02-13T05:09:24;38.97;;;16.50;;
18072;SDS011;9161;47.348;9.648;2023-02-13T05:14:26;42.00;;;18.53;;
18072;SDS011;9161;47.348;9.648;2023-02-13T05:19:29;41.47;;;16.90;;
18072;SDS011;9161;47.348;9.648;2023-02-13T05:24:33;34.87;;;16.73;;
18072;SDS011;9161;47.348;9.648;2023-02-13T05:29:36;41.40;;;18.10;;
18072;SDS011;9161;47.348;9.648;2023-02-13T05:34:39;44.70;;;18.70;;
18072;SDS011;9161;47.348;9.648;2023-02-13T05:39:43;44.00;;;19.07;;
18072;SDS011;9161;47.348;9.648;2023-02-13T05:44:46;54.23;;;21.07;;
18072;SDS011;9161;47.348;9.648;2023-02-13T05:49:47;57.60;;;22.57;;
18072;SDS011;9161;47.348;9.648;2023-02-13T05:54:51;55.47;;;22.73;;
18072;SDS011;9161;47.348;9.648;2023-02-13T05:59:53;56.00;;;21.43;;
18072;SDS011;9161;47.348;9.648;2023-02-13T06:04:56;63.53;;;23.43;;
18072;SDS011;9161;47.348;9.648;2023-02-13T06:09:59;68.30;;;25.80;;
18072;SDS011;9161;47.348;9.648;2023-02-13T06:15:02;71.13;;;26.47;;
18072;SDS011;9161;47.348;9.648;2023-02-13T06:20:05;62.97;;;24.47;;
18072;SDS011;9161;47.348;9.648;2023-02-13T06:25:10;58.47;;;24.00;;
18072;SDS011;9161;47.348;9.648;2023-02-13T06:30:13;63.50;;;25.00;;
18072;SDS011;9161;47.348;9.648;2023-02-13T06:35:17;67.93;;;25.77;;
18072;SDS011;9161;47.348;9.648;2023-02-13T06:40:21;66.30;;;25.07;;
18072;SDS011;9161;47.348;9.648;2023-02-13T06:45:23;59.93;;;23.33;;
18072;SDS011;9161;47.348;9.648;2023-02-13T06:50:26;58.13;;;22.40;;
18072;SDS011;9161;47.348;9.648;2023-02-13T06:55:30;51.00;;;21.63;;
18072;SDS011;9161;47.348;9.648;2023-02-13T07:00:32;52.80;;;21.50;;
18072;SDS011;9161;47.348;9.648;2023-02-13T07:05:38;46.87;;;20.17;;
18072;SDS011;9161;47.348;9.648;2023-02-13T07:10:42;55.50;;;22.80;;
18072;SDS011;9161;47.348;9.648;2023-02-13T07:15:44;55.83;;;23.07;;
18072;SDS011;9161;47.348;9.648;2023-02-13T07:20:46;51.70;;;21.70;;
18072;SDS011;9161;47.348;9.648;2023-02-13T07:25:50;60.13;;;22.97;;
18072;SDS011;9161;47.348;9.648;2023-02-13T07:30:53;56.80;;;21.70;;
18072;SDS011;9161;47.348;9.648;2023-02-13T07:35:56;55.03;;;21.83;;
18072;SDS011;9161;47.348;9.648;2023-02-13T07:40:59;51.67;;;22.00;;
18072;SDS011;9161;47.348;9.648;2023-02-13T07:46:02;54.27;;;21.90;;
18072;SDS011;9161;47.348;9.648;2023-02-13T07:51:05;60.03;;;22.93;;
18072;SDS011;9161;47.348;9.648;2023-02-13T07:56:09;55.70;;;21.43;;
18072;SDS011;9161;47.348;9.648;2023-02-13T08:01:13;53.83;;;21.87;;
18072;SDS011;9161;47.348;9.648;2023-02-13T08:06:16;54.60;;;20.97;;
18072;SDS011;9161;47.348;9.648;2023-02-13T08:11:23;48.63;;;21.00;;
18072;SDS011;9161;47.348;9.648;2023-02-13T08:16:46;52.60;;;21.90;;
18072;SDS011;9161;47.348;9.648;2023-02-13T08:21:48;48.23;;;20.53;;
18072;SDS011;9161;47.348;9.648;2023-02-13T08:26:52;44.30;;;18.40;;
18072;SDS011;9161;47.348;9.648;2023-02-13T08:31:55;46.80;;;19.07;;
18072;SDS011;9161;47.348;9.648;2023-02-13T08:36:58;40.90;;;17.93;;
18072;SDS011;9161;47.348;9.648;2023-02-13T08:42:02;38.53;;;17.23;;
18072;SDS011;9161;47.348;9.648;2023-02-13T08:47:05;44.43;;;17.97;;
18072;SDS011;9161;47.348;9.648;2023-02-13T08:52:07;41.97;;;18.83;;
18072;SDS011;9161;47.348;9.648;2023-02-13T08:57:10;37.57;;;17.07;;
18072;SDS011;9161;47.348;9.648;2023-02-13T09:02:12;46.13;;;18.80;;
18072;SDS011;9161;47.348;9.648;2023-02-13T09:07:15;37.50;;;18.03;;
18072;SDS011;9161;47.348;9.648;2023-02-13T09:12:19;42.40;;;16.93;;
18072;SDS011;9161;47.348;9.648;2023-02-13T09:17:21;43.80;;;17.87;;
18072;SDS011;9161;47.348;9.648;2023-02-13T09:22:23;53.13;;;18.73;;
18072;SDS011;9161;47.348;9.648;2023-02-13T09:27:27;39.90;;;17.93;;
18072;SDS011;9161;47.348;9.648;2023-02-13T09:32:29;39.67;;;17.20;;
18072;SDS011;9161;47.348;9.648;2023-02-13T09:37:33;39.87;;;17.60;;
18072;SDS011;9161;47.348;9.648;2023-02-13T09:42:37;41.67;;;18.23;;
18072;SDS011;9161;47.348;9.648;2023-02-13T09:47:40;40.03;;;18.40;;
18072;SDS011;9161;47.348;9.648;2023-02-13T09:52:43;37.50;;;17.23;;
18072;SDS011;9161;47.348;9.648;2023-02-13T09:57:50;38.27;;;18.00;;
18072;SDS011;9161;47.348;9.648;2023-02-13T10:03:12;35.20;;;16.63;;
18072;SDS011;9161;47.348;9.648;2023-02-13T10:08:30;36.37;;;16.77;;
18072;SDS011;9161;47.348;9.648;2023-02-13T10:19:11;32.40;;;15.63;;
18072;SDS011;9161;47.348;9.648;2023-02-13T10:24:22;32.13;;;15.37;;
18072;SDS011;9161;47.348;9.648;2023-02-13T10:29:35;28.20;;;13.93;;
18072;SDS011;9161;47.348;9.648;2023-02-13T10:35:02;32.03;;;15.27;;
18072;SDS011;9161;47.348;9.648;2023-02-13T10:40:16;30.63;;;15.10;;
18072;SDS011;9161;47.348;9.648;2023-02-13T10:45:37;30.07;;;14.63;;
18072;SDS011;9161;47.348;9.648;2023-02-13T10:50:55;29.50;;;14.57;;
18072;SDS011;9161;47.348;9.648;2023-02-13T10:56:07;28.07;;;14.07;;
18072;SDS011;9161;47.348;9.648;2023-02-13T11:01:26;27.77;;;14.47;;
18072;SDS011;9161;47.348;9.648;2023-02-13T11:06:35;26.80;;;15.10;;
18072;SDS011;9161;47.348;9.648;2023-02-13T11:11:39;28.27;;;15.17;;
18072;SDS011;9161;47.348;9.648;2023-02-13T11:16:48;24.83;;;14.50;;
18072;SDS011;9161;47.348;9.648;2023-02-13T11:21:53;27.03;;;14.90;;
18072;SDS011;9161;47.348;9.648;2023-02-13T11:26:58;28.87;;;15.40;;
18072;SDS011;9161;47.348;9.648;2023-02-13T11:32:18;27.55;;;15.50;;
18072;SDS011;9161;47.348;9.648;2023-02-13T11:37:23;25.23;;;15.25;;
18072;SDS011;9161;47.348;9.648;2023-02-13T11:42:28;27.75;;;16.30;;
18072;SDS011;9161;47.348;9.648;2023-02-13T11:47:38;29.67;;;16.98;;
18072;SDS011;9161;47.348;9.648;2023-02-13T11:52:41;28.30;;;16.13;;
18072;SDS011;9161;47.348;9.648;2023-02-13T11:57:45;27.55;;;15.77;;
18072;SDS011;9161;47.348;9.648;2023-02-13T12:02:59;26.58;;;16.42;;
18072;SDS011;9161;47.348;9.648;2023-02-13T12:08:01;25.35;;;14.70;;
18072;SDS011;9161;47.348;9.648;2023-02-13T12:13:12;22.63;;;14.93;;
18072;SDS011;9161;47.348;9.648;2023-02-13T12:18:18;21.83;;;14.60;;
18072;SDS011;9161;47.348;9.648;2023-02-13T12:23:27;27.75;;;15.98;;
18072;SDS011;9161;47.348;9.648;2023-02-13T12:28:38;23.70;;;15.70;;
18072;SDS011;9161;47.348;9.648;2023-02-13T12:34:16;26.08;;;15.88;;
18072;SDS011;9161;47.348;9.648;2023-02-13T12:39:32;25.13;;;15.55;;
18072;SDS011;9161;47.348;9.648;2023-02-13T12:44:38;25.77;;;14.77;;
18072;SDS011;9161;47.348;9.648;2023-02-13T12:50:02;25.15;;;15.20;;
18072;SDS011;9161;47.348;9.648;2023-02-13T12:55:21;23.98;;;16.08;;
18072;SDS011;9161;47.348;9.648;2023-02-13T13:00:37;22.63;;;15.02;;
18072;SDS011;9161;47.348;9.648;2023-02-13T13:05:54;30.05;;;18.55;;
18072;SDS011;9161;47.348;9.648;2023-02-13T13:11:16;27.77;;;17.50;;
18072;SDS011;9161;47.348;9.648;2023-02-13T13:16:30;28.63;;;17.95;;
18072;SDS011;9161;47.348;9.648;2023-02-13T13:21:46;27.17;;;17.33;;
18072;SDS011;9161;47.348;9.648;2023-02-13T13:26:53;27.92;;;17.73;;
18072;SDS011;9161;47.348;9.648;2023-02-13T13:31:58;26.58;;;17.67;;
18072;SDS011;9161;47.348;9.648;2023-02-13T13:37:06;30.08;;;17.83;;
18072;SDS011;9161;47.348;9.648;2023-02-13T13:42:17;28.13;;;17.35;;
18072;SDS011;9161;47.348;9.648;2023-02-13T13:47:30;29.40;;;18.50;;
18072;SDS011;9161;47.348;9.648;2023-02-13T13:58:18;27.25;;;18.35;;
18072;SDS011;9161;47.348;9.648;2023-02-13T14:03:23;27.20;;;17.30;;
18072;SDS011;9161;47.348;9.648;2023-02-13T14:19:53;27.90;;;17.48;;
18072;SDS011;9161;47.348;9.648;2023-02-13T14:24:58;29.55;;;17.50;;
18072;SDS011;9161;47.348;9.648;2023-02-13T14:30:03;27.80;;;17.15;;
18072;SDS011;9161;47.348;9.648;2023-02-13T14:35:14;29.58;;;17.33;;
18072;SDS011;9161;47.348;9.648;2023-02-13T14:45:50;27.80;;;17.27;;
18072;SDS011;9161;47.348;9.648;2023-02-13T14:50:56;30.00;;;17.38;;
18072;SDS011;9161;47.348;9.648;2023-02-13T14:56:00;27.45;;;16.88;;
18072;SDS011;9161;47.348;9.648;2023-02-13T15:01:12;28.83;;;17.40;;
18072;SDS011;9161;47.348;9.648;2023-02-13T15:06:24;28.40;;;17.63;;
18072;SDS011;9161;47.348;9.648;2023-02-13T15:11:30;30.83;;;18.05;;
18072;SDS011;9161;47.348;9.648;2023-02-13T15:16:39;33.22;;;18.25;;
18072;SDS011;9161;47.348;9.648;2023-02-13T15:21:45;33.15;;;18.48;;
18072;SDS011;9161;47.348;9.648;2023-02-13T15:26:57;33.70;;;19.00;;
18072;SDS011;9161;47.348;9.648;2023-02-13T15:32:17;33.63;;;19.00;;
18072;SDS011;9161;47.348;9.648;2023-02-13T15:37:22;34.30;;;18.47;;
18072;SDS011;9161;47.348;9.648;2023-02-13T15:42:27;37.10;;;18.90;;
18072;SDS011;9161;47.348;9.648;2023-02-13T15:47:33;38.27;;;18.87;;
18072;SDS011;9161;47.348;9.648;2023-02-13T15:52:36;36.83;;;19.07;;
18072;SDS011;9161;47.348;9.648;2023-02-13T15:57:40;37.33;;;19.10;;
18072;SDS011;9161;47.348;9.648;2023-02-13T16:02:45;35.27;;;17.80;;
18072;SDS011;9161;47.348;9.648;2023-02-13T16:07:52;36.30;;;17.87;;
18072;SDS011;9161;47.348;9.648;2023-02-13T16:12:56;36.83;;;17.50;;
18072;SDS011;9161;47.348;9.648;2023-02-13T16:18:03;41.33;;;18.07;;
18072;SDS011;9161;47.348;9.648;2023-02-13T16:23:13;40.57;;;17.30;;
18072;SDS011;9161;47.348;9.648;2023-02-13T16:28:20;37.23;;;16.50;;
18072;SDS011;9161;47.348;9.648;2023-02-13T16:33:30;36.10;;;16.80;;
18072;SDS011;9161;47.348;9.648;2023-02-13T16:38:34;37.87;;;16.80;;
18072;SDS011;9161;47.348;9.648;2023-02-13T16:43:42;36.70;;;15.63;;
18072;SDS011;9161;47.348;9.648;2023-02-13T16:48:59;31.77;;;15.07;;
18072;SDS011;9161;47.348;9.648;2023-02-13T16:54:18;39.50;;;17.07;;
18072;SDS011;9161;47.348;9.648;2023-02-13T16:59:31;37.60;;;16.13;;
18072;SDS011;9161;47.348;9.648;2023-02-13T17:04:45;39.57;;;17.07;;
18072;SDS011;9161;47.348;9.648;2023-02-13T17:09:57;36.40;;;16.33;;
18072;SDS011;9161;47.348;9.648;2023-02-13T17:15:02;41.70;;;16.93;;
18072;SDS011;9161;47.348;9.648;2023-02-13T17:20:12;46.13;;;17.13;;
18072;SDS011;9161;47.348;9.648;2023-02-13T17:25:25;37.77;;;17.27;;
18072;SDS011;9161;47.348;9.648;2023-02-13T17:30:30;43.33;;;17.97;;
18072;SDS011;9161;47.348;9.648;2023-02-13T17:35:36;48.40;;;19.83;;
18072;SDS011;9161;47.348;9.648;2023-02-13T17:40:40;46.80;;;19.43;;
18072;SDS011;9161;47.348;9.648;2023-02-13T17:45:44;45.10;;;18.67;;
18072;SDS011;9161;47.348;9.648;2023-02-13T17:50:51;39.03;;;16.90;;
18072;SDS011;9161;47.348;9.648;2023-02-13T17:55:53;44.63;;;17.93;;
18072;SDS011;9161;47.348;9.648;2023-02-13T18:00:57;42.73;;;18.10;;
18072;SDS011;9161;47.348;9.648;2023-02-13T18:06:05;42.83;;;18.73;;
18072;SDS011;9161;47.348;9.648;2023-02-13T18:11:12;42.43;;;17.63;;
18072;SDS011;9161;47.348;9.648;2023-02-13T18:16:16;49.00;;;19.27;;
18072;SDS011;9161;47.348;9.648;2023-02-13T18:21:23;52.40;;;21.70;;
18072;SDS011;9161;47.348;9.648;2023-02-13T18:26:27;47.80;;;20.83;;
18072;SDS011;9161;47.348;9.648;2023-02-13T18:31:31;45.53;;;18.20;;
18072;SDS011;9161;47.348;9.648;2023-02-13T18:36:40;54.90;;;20.70;;
18072;SDS011;9161;47.348;9.648;2023-02-13T18:41:45;50.13;;;21.73;;
18072;SDS011;9161;47.348;9.648;2023-02-13T18:46:50;60.77;;;23.87;;
18072;SDS011;9161;47.348;9.648;2023-02-13T18:51:56;52.27;;;22.73;;
18072;SDS011;9161;47.348;9.648;2023-02-13T18:57:02;45.47;;;20.83;;
18072;SDS011;9161;47.348;9.648;2023-02-13T19:02:09;47.60;;;20.53;;
18072;SDS011;9161;47.348;9.648;2023-02-13T19:07:15;42.27;;;17.80;;
18072;SDS011;9161;47.348;9.648;2023-02-13T19:12:21;43.57;;;20.00;;
18072;SDS011;9161;47.348;9.648;2023-02-13T19:17:24;52.13;;;21.87;;
18072;SDS011;9161;47.348;9.648;2023-02-13T19:22:31;48.37;;;19.53;;
18072;SDS011;9161;47.348;9.648;2023-02-13T19:27:35;50.17;;;21.30;;
18072;SDS011;9161;47.348;9.648;2023-02-13T19:32:40;47.00;;;20.83;;
18072;SDS011;9161;47.348;9.648;2023-02-13T19:37:45;47.53;;;21.73;;
18072;SDS011;9161;47.348;9.648;2023-02-13T19:42:50;49.50;;;20.27;;
18072;SDS011;9161;47.348;9.648;2023-02-13T19:47:55;50.37;;;21.27;;
18072;SDS011;9161;47.348;9.648;2023-02-13T19:53:07;39.77;;;18.60;;
18072;SDS011;9161;47.348;9.648;2023-02-13T19:58:12;43.83;;;18.80;;
18072;SDS011;9161;47.348;9.648;2023-02-13T20:03:14;45.57;;;17.80;;
18072;SDS011;9161;47.348;9.648;2023-02-13T20:08:22;47.93;;;18.90;;
18072;SDS011;9161;47.348;9.648;2023-02-13T20:13:25;41.37;;;18.43;;
18072;SDS011;9161;47.348;9.648;2023-02-13T20:18:32;45.33;;;20.07;;
18072;SDS011;9161;47.348;9.648;2023-02-13T20:23:41;42.93;;;19.27;;
18072;SDS011;9161;47.348;9.648;2023-02-13T20:28:48;38.77;;;18.30;;
18072;SDS011;9161;47.348;9.648;2023-02-13T20:33:52;46.50;;;19.97;;
18072;SDS011;9161;47.348;9.648;2023-02-13T20:38:59;51.10;;;21.23;;
18072;SDS011;9161;47.348;9.648;2023-02-13T20:50:11;48.97;;;21.00;;
18072;SDS011;9161;47.348;9.648;2023-02-13T20:55:32;56.53;;;22.90;;
18072;SDS011;9161;47.348;9.648;2023-02-13T21:01:00;47.27;;;20.30;;
18072;SDS011;9161;47.348;9.648;2023-02-13T21:06:13;53.43;;;22.23;;
18072;SDS011;9161;47.348;9.648;2023-02-13T21:11:19;50.80;;;21.57;;
18072;SDS011;9161;47.348;9.648;2023-02-13T21:16:25;62.00;;;24.17;;
18072;SDS011;9161;47.348;9.648;2023-02-13T21:21:34;57.10;;;22.47;;
18072;SDS011;9161;47.348;9.648;2023-02-13T21:26:40;53.23;;;21.70;;
18072;SDS011;9161;47.348;9.648;2023-02-13T21:31:46;58.43;;;21.77;;
18072;SDS011;9161;47.348;9.648;2023-02-13T21:36:50;52.57;;;21.70;;
18072;SDS011;9161;47.348;9.648;2023-02-13T21:41:56;58.30;;;22.53;;
18072;SDS011;9161;47.348;9.648;2023-02-13T21:46:58;54.07;;;23.27;;
18072;SDS011;9161;47.348;9.648;2023-02-13T21:52:01;52.77;;;22.07;;
18072;SDS011;9161;47.348;9.648;2023-02-13T21:57:05;52.80;;;21.97;;
18072;SDS011;9161;47.348;9.648;2023-02-13T22:02:08;46.70;;;20.63;;
18072;SDS011;9161;47.348;9.648;2023-02-13T22:07:11;49.13;;;22.60;;
18072;SDS011;9161;47.348;9.648;2023-02-13T22:12:14;57.27;;;22.30;;
18072;SDS011;9161;47.348;9.648;2023-02-13T22:17:16;52.07;;;21.37;;
18072;SDS011;9161;47.348;9.648;2023-02-13T22:22:21;54.77;;;22.83;;
18072;SDS011;9161;47.348;9.648;2023-02-13T22:27:24;61.17;;;23.73;;
18072;SDS011;9161;47.348;9.648;2023-02-13T22:32:27;57.63;;;23.47;;
18072;SDS011;9161;47.348;9.648;2023-02-13T22:37:29;55.27;;;23.77;;
18072;SDS011;9161;47.348;9.648;2023-02-13T22:42:33;53.53;;;23.93;;
18072;SDS011;9161;47.348;9.648;2023-02-13T22:47:36;54.23;;;23.90;;
18072;SDS011;9161;47.348;9.648;2023-02-13T22:52:38;57.57;;;23.63;;
18072;SDS011;9161;47.348;9.648;2023-02-13T22:57:42;51.97;;;23.37;;
18072;SDS011;9161;47.348;9.648;2023-02-13T23:02:46;66.93;;;25.03;;
18072;SDS011;9161;47.348;9.648;2023-02-13T23:07:49;71.73;;;25.17;;
18072;SDS011;9161;47.348;9.648;2023-02-13T23:12:52;70.90;;;25.63;;
18072;SDS011;9161;47.348;9.648;2023-02-13T23:17:55;67.13;;;25.57;;
18072;SDS011;9161;47.348;9.648;2023-02-13T23:23:17;67.67;;;25.37;;
18072;SDS011;9161;47.348;9.648;2023-02-13T23:28:21;66.87;;;24.80;;
18072;SDS011;9161;47.348;9.648;2023-02-13T23:33:24;77.07;;;26.07;;
18072;SDS011;9161;47.348;9.648;2023-02-13T23:38:26;72.50;;;27.07;;
18072;SDS011;9161;47.348;9.648;2023-02-13T23:43:30;67.73;;;25.47;;
18072;SDS011;9161;47.348;9.648;2023-02-13T23:48:32;74.57;;;28.13;;
18072;SDS011;9161;47.348;9.648;2023-02-13T23:53:35;76.77;;;27.43;;
18072;SDS011;9161;47.348;9.648;2023-02-13T23:58:38;74.60;;;27.43;;
